Time;durP1;ratioP1;P1;durP2;ratioP2;P2;SDS_P1;SDS_P2;PMS_P1;PMS_P2;Temp;Humidity;BMP_temperature;BMP_pressure;BME280_temperature;BME280_humidity;BME280_pressure;Samples;Min_cycle;Max_cycle;Signal;HPM_P1;HPM_P2
2022/03/25 00:01:10;;;;;;;26.43;19.07;;;0.30;96.30;;;;;;4979913;28;20201;-81
2022/03/25 00:03:36;;;;;;;30.60;19.93;;;0.20;96.30;;;;;;4997487;28;20188;-79
2022/03/25 00:06:01;;;;;;;29.63;19.97;;;0.10;96.30;;;;;;4979562;28;20664;-80
2022/03/25 00:08:27;;;;;;;31.17;18.53;;;0.10;96.30;;;;;;4979069;28;20664;-81
2022/03/25 00:10:53;;;;;;;27.17;19.80;;;0.00;96.30;;;;;;4997268;28;20625;-81
2022/03/25 00:13:18;;;;;;;27.77;19.40;;;0.00;96.30;;;;;;4979730;28;20205;-81
2022/03/25 00:15:44;;;;;;;31.53;19.20;;;0.00;96.30;;;;;;4979348;28;20181;-81
2022/03/25 00:18:09;;;;;;;34.83;18.87;;;-0.10;96.30;;;;;;4979095;28;20200;-80
2022/03/25 00:20:35;;;;;;;29.63;18.87;;;-0.10;96.30;;;;;;4979640;28;20170;-80
2022/03/25 00:23:01;;;;;;;36.97;20.70;;;-0.10;96.30;;;;;;4996752;28;20209;-76
2022/03/25 00:25:28;;;;;;;25.20;19.30;;;0.00;96.30;;;;;;4981098;28;20220;-78
2022/03/25 00:27:53;;;;;;;36.40;20.40;;;-0.10;96.30;;;;;;4998280;28;20420;-80
2022/03/25 00:30:19;;;;;;;27.73;18.93;;;-0.10;96.30;;;;;;4982441;28;20470;-77
2022/03/25 00:32:45;;;;;;;33.97;21.00;;;-0.10;96.30;;;;;;4994883;28;20204;-76
2022/03/25 00:35:10;;;;;;;29.33;20.37;;;0.00;96.30;;;;;;4977273;28;20173;-77
2022/03/25 00:37:36;;;;;;;34.73;20.20;;;-0.10;96.30;;;;;;4977246;28;20264;-77
2022/03/25 00:40:02;;;;;;;28.07;18.87;;;-0.10;96.30;;;;;;4994708;28;20557;-77
2022/03/25 00:42:28;;;;;;;28.83;20.33;;;-0.10;96.30;;;;;;4977427;28;20213;-77
2022/03/25 00:44:55;;;;;;;28.80;21.20;;;-0.10;96.30;;;;;;4977265;28;20408;-77
2022/03/25 00:47:22;;;;;;;26.20;19.47;;;-0.10;96.30;;;;;;4977115;28;20421;-79
2022/03/25 00:49:47;;;;;;;35.20;21.23;;;-0.10;96.30;;;;;;4977022;28;20420;-77
2022/03/25 00:52:13;;;;;;;31.00;19.93;;;-0.10;96.30;;;;;;4994242;28;20465;-77
2022/03/25 00:54:38;;;;;;;36.20;21.40;;;-0.20;96.30;;;;;;4977086;28;20197;-80
2022/03/25 00:57:04;;;;;;;28.07;19.67;;;-0.20;96.30;;;;;;4994350;28;20348;-77
2022/03/25 00:59:29;;;;;;;25.50;19.23;;;-0.30;96.30;;;;;;4976752;28;20268;-77
2022/03/25 05:02:58;;;;;;;29.53;16.37;;;-1.70;96.30;;;;;;4923476;29;20483;-79
2022/03/25 05:05:25;;;;;;;26.07;17.60;;;-1.80;96.30;;;;;;4921574;29;20412;-80
2022/03/25 05:07:50;;;;;;;25.50;17.03;;;-1.80;96.30;;;;;;4918976;29;20175;-79
2022/03/25 05:10:16;;;;;;;31.10;15.87;;;-1.90;96.30;;;;;;4922717;29;21006;-81
2022/03/25 05:12:42;;;;;;;32.03;16.77;;;-1.80;96.30;;;;;;4922166;29;20208;-80
2022/03/25 05:15:08;;;;;;;24.47;16.57;;;-1.80;96.30;;;;;;4921527;29;20588;-80
2022/03/25 05:17:34;;;;;;;27.03;17.50;;;-1.80;96.30;;;;;;4920492;29;20416;-79
2022/03/25 05:20:07;;;;;;;26.43;18.37;;;-1.60;96.30;;;;;;4935237;29;20510;-79
2022/03/25 06:16:43;;;;;;;17.20;14.10;;;8.00;94.80;;;;;;5640140;23;20507;-77
2022/03/25 07:23:43;;;;;;;17.20;13.73;;;12.70;80.00;;;;;;4936073;29;20834;-78
2022/03/25 07:26:09;;;;;;;19.60;14.67;;;14.50;76.20;;;;;;4948193;29;20424;-77
2022/03/25 07:28:34;;;;;;;20.70;14.07;;;14.10;74.60;;;;;;4944280;28;20843;-77
2022/03/25 07:31:00;;;;;;;21.23;14.93;;;14.30;76.40;;;;;;4953625;28;20199;-78
2022/03/25 07:33:26;;;;;;;20.13;14.13;;;14.60;74.20;;;;;;4949549;28;20554;-78
2022/03/25 07:35:51;;;;;;;18.87;13.53;;;15.40;71.90;;;;;;4954019;29;20595;-77
2022/03/25 07:38:17;;;;;;;18.47;13.80;;;15.30;73.10;;;;;;4945944;29;20258;-77
2022/03/25 07:40:42;;;;;;;15.50;13.83;;;15.60;70.90;;;;;;4927901;29;20192;-78
2022/03/25 07:43:08;;;;;;;23.10;14.50;;;15.70;71.80;;;;;;4930390;29;20681;-78
2022/03/25 07:45:33;;;;;;;16.40;13.73;;;15.80;71.20;;;;;;4928846;29;20180;-77
2022/03/25 07:47:59;;;;;;;21.97;14.23;;;16.20;70.50;;;;;;4955061;29;20594;-77
2022/03/25 07:50:24;;;;;;;17.77;13.97;;;15.80;71.10;;;;;;4947709;28;20278;-79
2022/03/25 07:52:51;;;;;;;19.67;13.77;;;15.10;72.30;;;;;;4947833;28;20203;-77
2022/03/25 07:55:18;;;;;;;26.30;13.53;;;15.80;71.50;;;;;;4945054;28;20171;-78
2022/03/25 07:57:45;;;;;;;16.23;11.80;;;15.70;71.30;;;;;;4954452;28;20435;-77
2022/03/25 08:00:12;;;;;;;22.57;13.93;;;16.40;70.10;;;;;;4922316;28;20963;-79
2022/03/25 08:02:39;;;;;;;17.73;12.93;;;15.00;73.60;;;;;;4948182;28;20501;-77
2022/03/25 08:05:06;;;;;;;19.27;13.77;;;15.10;73.40;;;;;;4923194;29;20431;-78
2022/03/25 08:07:31;;;;;;;17.20;13.67;;;15.50;72.20;;;;;;4949266;28;20442;-77
2022/03/25 08:09:58;;;;;;;17.93;12.17;;;15.10;72.90;;;;;;4934668;29;20769;-78
2022/03/25 08:12:24;;;;;;;19.10;13.40;;;16.00;72.80;;;;;;4943294;28;20201;-78
2022/03/25 08:14:50;;;;;;;22.70;12.93;;;15.70;70.80;;;;;;4938901;29;20453;-77
2022/03/25 08:17:17;;;;;;;22.23;16.43;;;15.70;72.50;;;;;;4953497;28;20886;-78
2022/03/25 08:19:42;;;;;;;23.20;14.23;;;15.90;70.10;;;;;;4959129;28;20178;-77
2022/03/25 08:22:08;;;;;;;27.53;15.17;;;16.40;69.50;;;;;;4954782;29;20445;-77
2022/03/25 08:30:02;;;;;;;20.70;18.03;;;15.60;71.20;;;;;;4956467;28;20436;-79
2022/03/25 08:32:27;;;;;;;26.67;19.87;;;16.10;70.20;;;;;;4940193;29;20466;-78
2022/03/25 08:34:53;;;;;;;26.10;19.30;;;16.90;69.30;;;;;;4948593;28;20667;-78
2022/03/25 08:37:19;;;;;;;26.00;18.60;;;17.10;66.00;;;;;;4954686;28;20186;-78
2022/03/25 08:39:44;;;;;;;30.40;18.80;;;17.80;64.70;;;;;;4973478;28;20173;-79
2022/03/25 08:42:10;;;;;;;26.17;20.40;;;17.70;63.00;;;;;;4955627;28;20220;-78
2022/03/25 08:44:36;;;;;;;27.93;18.60;;;18.30;64.50;;;;;;4951488;28;20188;-77
2022/03/25 08:47:01;;;;;;;32.87;18.83;;;18.40;60.50;;;;;;4964886;28;20663;-79
2022/03/25 08:49:28;;;;;;;21.40;17.43;;;17.60;60.80;;;;;;4959080;28;20174;-79
2022/03/25 08:51:54;;;;;;;25.13;17.70;;;17.50;62.50;;;;;;4935272;29;20207;-78
2022/03/25 08:54:19;;;;;;;22.87;16.87;;;18.50;61.80;;;;;;4956759;28;20485;-79
2022/03/25 08:56:45;;;;;;;27.77;18.27;;;18.90;62.10;;;;;;4946548;28;20596;-78
2022/03/25 08:59:10;;;;;;;24.00;18.00;;;19.10;62.40;;;;;;4940762;28;20184;-78
2022/03/25 09:01:36;;;;;;;32.47;17.50;;;18.40;61.40;;;;;;4940413;28;20261;-77
2022/03/25 09:04:02;;;;;;;27.80;17.67;;;18.10;63.50;;;;;;4942415;29;20179;-77
2022/03/25 09:06:28;;;;;;;26.13;18.20;;;18.40;61.40;;;;;;4944710;28;20198;-78
2022/03/25 09:08:53;;;;;;;27.63;17.97;;;18.80;63.30;;;;;;4936202;29;20464;-78
2022/03/25 09:11:20;;;;;;;29.37;17.50;;;19.20;61.60;;;;;;4954632;28;20273;-78
2022/03/25 09:13:46;;;;;;;28.00;16.90;;;19.60;61.50;;;;;;4953440;28;20218;-78
2022/03/25 09:16:13;;;;;;;27.40;16.60;;;20.20;62.40;;;;;;4949331;29;20437;-79
2022/03/25 09:18:39;;;;;;;29.13;15.67;;;19.90;58.30;;;;;;4949725;28;20619;-78
2022/03/25 09:21:04;;;;;;;23.70;14.67;;;19.20;59.30;;;;;;4957584;28;20481;-78
2022/03/25 09:23:30;;;;;;;20.73;14.80;;;19.00;59.40;;;;;;4948827;28;20193;-78
2022/03/25 09:25:56;;;;;;;20.40;15.57;;;18.60;61.90;;;;;;4958792;28;20238;-79
2022/03/25 09:28:22;;;;;;;22.43;12.83;;;19.30;62.50;;;;;;4928093;29;20175;-79
2022/03/25 09:30:47;;;;;;;21.63;13.90;;;18.30;58.20;;;;;;4944992;28;20590;-78
2022/03/25 09:33:13;;;;;;;25.10;13.77;;;18.10;59.00;;;;;;4928827;29;20206;-79
2022/03/25 09:35:38;;;;;;;20.30;12.40;;;17.60;59.40;;;;;;4951925;28;20530;-79
2022/03/25 09:38:05;;;;;;;23.43;13.13;;;17.90;62.40;;;;;;4949374;28;20215;-79
2022/03/25 09:40:30;;;;;;;19.70;13.30;;;17.60;63.10;;;;;;4943734;28;20562;-78
2022/03/25 09:42:57;;;;;;;23.53;13.80;;;17.40;62.90;;;;;;4935371;29;20423;-79
2022/03/25 09:45:24;;;;;;;21.40;13.40;;;16.70;63.40;;;;;;4950027;29;20183;-79
2022/03/25 09:47:50;;;;;;;21.80;13.20;;;16.70;62.90;;;;;;4954640;28;20438;-79
2022/03/25 09:50:21;;;;;;;25.73;13.73;;;17.00;62.40;;;;;;4947034;28;20558;-79
2022/03/25 09:52:47;;;;;;;21.53;11.97;;;17.50;62.40;;;;;;4949219;28;20206;-78
2022/03/25 09:55:14;;;;;;;39.27;13.77;;;18.00;61.70;;;;;;4939592;29;20422;-78
2022/03/25 09:57:40;;;;;;;20.60;13.83;;;18.90;60.40;;;;;;4955922;29;20422;-77
2022/03/25 10:00:07;;;;;;;17.77;11.90;;;19.20;60.30;;;;;;4965301;28;20436;-78
2022/03/25 10:02:32;;;;;;;16.13;10.87;;;18.10;58.40;;;;;;4936884;29;20451;-76
2022/03/25 10:04:58;;;;;;;19.13;11.47;;;16.60;57.00;;;;;;4940120;28;20946;-76
2022/03/25 10:07:30;;;;;;;14.17;10.20;;;15.70;60.40;;;;;;4941825;28;20191;-78
2022/03/25 10:10:11;;;;;;;27.70;12.20;;;16.10;63.70;;;;;;4932219;29;20525;-77
2022/03/25 10:12:38;;;;;;;19.30;9.77;;;15.80;62.40;;;;;;4941477;28;20468;-77
2022/03/25 10:15:31;;;;;;;14.10;8.10;;;15.10;61.50;;;;;;4951317;29;20929;-78
2022/03/25 10:18:04;;;;;;;14.17;9.07;;;15.10;60.90;;;;;;4939539;29;20432;-78
2022/03/25 10:20:31;;;;;;;19.40;10.50;;;15.60;59.80;;;;;;4937264;29;20465;-78
2022/03/25 10:23:08;;;;;;;16.03;9.07;;;15.90;60.50;;;;;;4951171;28;21077;-78
2022/03/25 10:25:37;;;;;;;16.60;8.87;;;15.80;61.40;;;;;;4939350;28;20459;-78
2022/03/25 10:28:04;;;;;;;26.03;11.50;;;15.40;59.90;;;;;;4945940;28;20811;-78
2022/03/25 10:30:36;;;;;;;14.40;9.20;;;15.40;65.80;;;;;;4948182;28;20923;-78
2022/03/25 10:33:23;;;;;;;14.20;9.50;;;15.60;64.00;;;;;;4956194;28;20482;-78
2022/03/25 10:35:56;;;;;;;15.10;8.80;;;15.50;61.40;;;;;;4947824;28;20857;-78
2022/03/25 10:38:22;;;;;;;25.77;9.93;;;15.20;60.00;;;;;;4937822;29;20517;-78
2022/03/25 10:40:53;;;;;;;18.53;9.43;;;15.40;63.40;;;;;;4955180;28;20458;-78
2022/03/25 10:43:19;;;;;;;20.57;10.20;;;15.30;59.40;;;;;;4954784;28;20478;-76
2022/03/25 10:45:45;;;;;;;17.63;11.83;;;15.10;60.20;;;;;;4950242;28;20437;-78
2022/03/25 10:48:19;;;;;;;27.40;11.33;;;15.00;60.70;;;;;;4944332;29;20430;-78
2022/03/25 10:51:10;;;;;;;17.33;10.40;;;14.90;59.40;;;;;;4960806;28;20790;-78
2022/03/25 10:53:37;;;;;;;18.87;10.40;;;14.40;60.60;;;;;;4944608;29;20505;-78
2022/03/25 10:56:07;;;;;;;18.10;10.53;;;14.80;61.70;;;;;;4958500;28;20996;-78
2022/03/25 10:58:34;;;;;;;22.20;11.33;;;15.00;60.80;;;;;;4967059;28;20415;-78
2022/03/25 11:01:02;;;;;;;20.50;12.37;;;14.90;61.40;;;;;;4939881;28;20454;-78
2022/03/25 11:03:27;;;;;;;21.93;11.57;;;14.90;61.10;;;;;;4939187;28;20423;-77
2022/03/25 11:05:54;;;;;;;18.40;11.70;;;15.40;60.60;;;;;;4923401;29;20450;-78
2022/03/25 11:08:20;;;;;;;24.67;11.40;;;15.50;59.80;;;;;;4941118;28;20229;-78
2022/03/25 11:10:46;;;;;;;26.47;13.07;;;15.40;62.20;;;;;;4966268;28;21108;-78
2022/03/25 11:13:11;;;;;;;15.37;11.07;;;15.60;59.70;;;;;;4968608;28;20273;-79
2022/03/25 11:15:38;;;;;;;20.30;11.10;;;15.00;60.00;;;;;;4954036;28;20410;-78
2022/03/25 11:18:05;;;;;;;19.93;11.73;;;15.00;61.10;;;;;;4943164;29;20179;-80
2022/03/25 11:20:31;;;;;;;21.73;10.90;;;15.00;61.40;;;;;;4966756;28;20417;-78
2022/03/25 11:23:23;;;;;;;24.37;13.10;;;15.30;61.60;;;;;;4939284;29;20427;-78
2022/03/25 11:25:56;;;;;;;18.43;10.87;;;15.70;60.90;;;;;;4956840;29;20202;-78
2022/03/25 11:28:30;;;;;;;23.80;11.10;;;15.60;63.00;;;;;;4938608;29;20418;-78
2022/03/25 14:23:49;;;;;;;12.83;8.53;;;15.00;61.10;;;;;;5044263;23;20501;-80
2022/03/25 14:26:15;;;;;;;15.30;8.67;;;14.90;64.50;;;;;;4969717;28;20421;-76
2022/03/25 14:28:40;;;;;;;23.00;10.30;;;14.80;65.20;;;;;;4954436;28;20545;-77
2022/03/25 14:31:06;;;;;;;16.67;8.90;;;14.70;61.80;;;;;;4960134;28;20198;-77
2022/03/25 14:33:31;;;;;;;16.47;9.73;;;15.20;63.20;;;;;;4972537;28;20233;-76
2022/03/25 14:35:57;;;;;;;23.57;10.50;;;15.50;62.50;;;;;;4958425;28;20183;-76
2022/03/25 14:38:22;;;;;;;17.07;9.80;;;15.60;65.40;;;;;;4952956;29;20167;-76
2022/03/25 14:40:48;;;;;;;18.00;9.60;;;15.00;67.40;;;;;;4955056;28;20612;-76
2022/03/25 14:43:13;;;;;;;23.43;11.40;;;14.50;67.20;;;;;;4952035;28;20182;-75
2022/03/25 14:45:39;;;;;;;18.23;11.50;;;14.30;68.50;;;;;;4971443;28;20218;-75
2022/03/25 14:48:05;;;;;;;21.60;11.90;;;14.40;68.60;;;;;;4956778;28;20528;-75
2022/03/25 14:50:30;;;;;;;21.50;12.20;;;14.70;68.70;;;;;;4956483;29;20254;-77
2022/03/25 14:52:55;;;;;;;22.17;11.73;;;14.70;67.10;;;;;;4956593;29;20195;-75
2022/03/25 14:55:21;;;;;;;17.00;11.00;;;14.60;67.70;;;;;;4956658;29;20635;-77
2022/03/25 14:57:47;;;;;;;16.40;11.30;;;14.40;68.80;;;;;;4956435;29;20178;-76
2022/03/25 15:00:14;;;;;;;25.60;12.47;;;14.40;70.30;;;;;;4956521;29;20246;-75
2022/03/25 15:02:40;;;;;;;24.43;12.83;;;14.30;68.80;;;;;;4939242;29;20486;-75
2022/03/25 15:05:06;;;;;;;32.00;11.37;;;14.20;70.70;;;;;;4956486;29;20414;-75
2022/03/25 15:07:31;;;;;;;24.40;11.10;;;14.10;68.60;;;;;;4956422;29;20237;-76
2022/03/25 15:09:57;;;;;;;24.63;12.30;;;14.20;70.80;;;;;;4939588;29;20419;-77
2022/03/25 15:12:23;;;;;;;18.53;11.47;;;14.00;69.50;;;;;;4956345;29;20191;-78
2022/03/25 15:14:48;;;;;;;22.10;11.60;;;13.80;70.40;;;;;;4939266;29;20175;-77
2022/03/25 15:17:14;;;;;;;23.77;12.40;;;13.90;69.50;;;;;;4956360;29;20206;-78
2022/03/25 15:19:39;;;;;;;23.03;13.53;;;14.10;70.80;;;;;;4939235;29;20186;-77
2022/03/25 15:22:05;;;;;;;22.97;12.07;;;14.10;70.80;;;;;;4956301;29;20194;-76
2022/03/25 15:24:31;;;;;;;27.93;11.80;;;13.70;70.90;;;;;;4956406;29;20287;-77
2022/03/25 15:26:57;;;;;;;22.30;12.30;;;13.80;71.00;;;;;;4956322;29;20534;-77
2022/03/25 15:34:51;;;;;;;25.93;11.30;;;13.80;71.30;;;;;;4955872;29;20418;-77
2022/03/25 15:37:17;;;;;;;22.27;12.77;;;13.70;71.60;;;;;;4938484;29;20422;-78
2022/03/25 15:40:00;;;;;;;19.13;10.83;;;13.50;71.00;;;;;;4956466;28;20202;-76
2022/03/25 15:42:27;;;;;;;16.20;11.47;;;13.40;72.00;;;;;;4938886;29;20303;-76
2022/03/25 15:44:53;;;;;;;22.93;11.00;;;13.10;71.10;;;;;;4955766;29;20426;-74
2022/03/25 15:47:18;;;;;;;26.27;11.33;;;13.10;69.10;;;;;;4955754;29;20415;-76
2022/03/25 15:49:45;;;;;;;19.87;11.93;;;13.20;68.90;;;;;;4954568;28;20190;-76
2022/03/25 15:52:11;;;;;;;19.97;11.23;;;13.10;73.70;;;;;;4965988;28;20540;-76
2022/03/25 15:54:37;;;;;;;28.07;12.67;;;13.00;73.00;;;;;;4962937;28;20426;-76
2022/03/25 15:57:02;;;;;;;28.67;14.00;;;12.70;73.70;;;;;;4954698;28;20651;-75
2022/03/25 15:59:28;;;;;;;24.07;14.67;;;12.50;75.00;;;;;;4944134;29;20175;-76
2022/03/25 16:01:54;;;;;;;29.00;14.00;;;12.40;75.30;;;;;;4962218;28;20206;-78
2022/03/25 16:04:19;;;;;;;21.43;13.83;;;12.30;75.50;;;;;;4956180;28;20194;-78
2022/03/25 16:06:45;;;;;;;25.53;13.90;;;12.40;75.30;;;;;;4954378;29;20262;-76
2022/03/25 16:09:11;;;;;;;22.37;13.50;;;12.30;75.30;;;;;;4954569;28;20179;-76
2022/03/25 16:11:36;;;;;;;29.20;14.83;;;12.30;76.40;;;;;;4965167;28;20461;-75
2022/03/25 16:14:02;;;;;;;24.73;15.40;;;12.30;75.30;;;;;;4958244;28;20225;-76
2022/03/25 16:16:27;;;;;;;19.63;13.90;;;12.20;74.60;;;;;;4953955;28;20178;-77
2022/03/25 16:18:53;;;;;;;31.47;14.93;;;12.10;76.90;;;;;;4968135;28;20210;-76
2022/03/25 16:21:18;;;;;;;26.00;15.73;;;11.90;76.70;;;;;;4957844;28;20207;-76
2022/03/25 16:23:44;;;;;;;22.23;14.50;;;11.90;76.00;;;;;;4965135;28;20885;-75
2022/03/25 16:26:10;;;;;;;33.03;16.10;;;11.90;79.30;;;;;;4944188;28;20609;-78
2022/03/25 16:28:35;;;;;;;23.20;16.10;;;11.90;79.20;;;;;;4965608;28;20175;-76
2022/03/25 16:31:01;;;;;;;25.57;17.13;;;11.80;79.20;;;;;;4967493;28;20209;-75
2022/03/25 16:33:28;;;;;;;23.50;14.03;;;11.70;80.30;;;;;;4958860;28;20207;-75
2022/03/25 16:35:53;;;;;;;29.53;16.10;;;11.60;79.40;;;;;;4955143;29;20545;-78
2022/03/25 16:38:19;;;;;;;23.70;16.20;;;11.40;79.70;;;;;;4946597;28;20418;-77
2022/03/25 16:40:45;;;;;;;20.40;14.80;;;11.10;81.20;;;;;;4973343;28;20277;-78
2022/03/25 16:43:12;;;;;;;23.60;15.53;;;10.90;82.40;;;;;;4974027;28;20209;-77
2022/03/25 16:45:37;;;;;;;25.73;16.77;;;10.60;83.70;;;;;;4957531;28;20437;-78
2022/03/25 16:48:03;;;;;;;27.33;15.40;;;10.40;83.90;;;;;;4975145;28;20422;-77
2022/03/25 16:50:29;;;;;;;28.90;17.57;;;10.10;84.20;;;;;;4958284;28;20272;-77
2022/03/25 16:52:54;;;;;;;31.03;15.90;;;10.10;83.70;;;;;;4937905;29;20217;-77
2022/03/25 16:55:20;;;;;;;30.20;17.43;;;9.90;85.00;;;;;;4956296;29;20673;-78
2022/03/25 16:57:46;;;;;;;25.17;15.63;;;9.70;86.50;;;;;;4938977;29;20179;-78
2022/03/25 17:00:14;;;;;;;24.00;15.53;;;9.50;87.00;;;;;;4939278;29;20267;-78
2022/03/25 17:02:40;;;;;;;24.63;15.67;;;9.40;87.80;;;;;;4956441;29;20191;-78
2022/03/25 17:05:07;;;;;;;28.13;16.63;;;9.10;89.50;;;;;;4937788;28;20775;-77
2022/03/25 17:07:33;;;;;;;24.10;15.10;;;8.90;90.60;;;;;;4954251;29;20427;-77
2022/03/25 17:09:58;;;;;;;35.60;17.43;;;8.60;91.30;;;;;;4970615;28;20927;-78
2022/03/25 17:12:24;;;;;;;28.10;17.70;;;8.60;91.30;;;;;;4974376;28;20210;-77
2022/03/25 17:14:49;;;;;;;38.17;19.80;;;8.60;91.90;;;;;;4974765;28;20265;-77
2022/03/25 17:17:15;;;;;;;30.43;18.00;;;8.50;92.20;;;;;;4976299;28;20174;-76
2022/03/25 17:19:40;;;;;;;31.50;18.17;;;8.40;92.90;;;;;;4975673;28;20175;-77
2022/03/25 17:22:07;;;;;;;25.73;17.43;;;8.20;93.50;;;;;;4975306;28;20210;-75
2022/03/25 17:24:34;;;;;;;35.43;19.20;;;8.10;93.90;;;;;;4974333;28;20206;-77
2022/03/25 17:26:59;;;;;;;28.87;17.27;;;7.90;94.50;;;;;;4973524;28;20410;-76
2022/03/25 17:29:25;;;;;;;24.87;16.50;;;7.70;95.00;;;;;;4959714;28;20421;-77
2022/03/25 17:31:50;;;;;;;26.53;16.57;;;7.50;95.70;;;;;;5429510;23;20279;-76
2022/03/25 17:34:16;;;;;;;35.60;19.63;;;7.40;96.10;;;;;;4973440;28;20213;-76
2022/03/25 17:36:42;;;;;;;26.97;17.33;;;7.20;96.30;;;;;;4955920;28;20552;-74
2022/03/25 17:39:10;;;;;;;41.43;19.57;;;7.10;96.30;;;;;;4972831;28;20178;-75
2022/03/25 17:41:35;;;;;;;40.20;20.50;;;7.10;96.30;;;;;;4965475;28;20439;-75
2022/03/25 17:44:02;;;;;;;47.77;18.73;;;7.00;96.30;;;;;;4961467;28;20509;-75
2022/03/25 17:46:28;;;;;;;34.93;21.33;;;6.90;96.30;;;;;;4973204;28;20593;-77
2022/03/25 17:48:54;;;;;;;29.03;17.63;;;6.90;96.30;;;;;;4960644;28;20433;-77
2022/03/25 17:51:19;;;;;;;39.60;19.63;;;6.90;96.30;;;;;;4953779;29;20545;-77
2022/03/25 17:53:45;;;;;;;27.37;17.40;;;6.90;96.30;;;;;;4954073;28;20207;-76
2022/03/25 17:56:11;;;;;;;31.37;17.67;;;6.90;96.30;;;;;;4954371;28;20186;-76
2022/03/25 17:58:36;;;;;;;33.30;18.57;;;6.70;96.30;;;;;;4953254;29;20246;-78
2022/03/25 18:01:02;;;;;;;33.70;18.17;;;6.50;96.30;;;;;;4938693;29;20434;-78
2022/03/25 18:03:28;;;;;;;38.53;17.60;;;6.30;96.30;;;;;;4937360;29;20649;-78
2022/03/25 18:05:54;;;;;;;26.83;17.83;;;6.20;96.30;;;;;;4935289;29;20189;-79
2022/03/25 18:08:20;;;;;;;24.23;16.67;;;6.10;96.30;;;;;;4948415;29;20950;-78
2022/03/25 18:10:47;;;;;;;30.73;18.17;;;6.00;96.30;;;;;;4926536;29;20211;-77
2022/03/25 18:13:13;;;;;;;31.47;18.77;;;5.90;96.30;;;;;;4922546;28;21013;-77
2022/03/25 18:15:39;;;;;;;32.33;18.60;;;5.90;96.30;;;;;;4974088;28;20424;-78
2022/03/25 18:18:11;;;;;;;31.57;18.40;;;5.80;96.30;;;;;;4958766;28;20414;-78
2022/03/25 18:20:36;;;;;;;35.20;18.50;;;5.80;96.30;;;;;;4977944;28;20436;-78
2022/03/25 18:23:02;;;;;;;32.60;18.23;;;6.00;96.30;;;;;;4978158;28;20410;-78
2022/03/25 18:25:28;;;;;;;25.63;17.70;;;6.10;96.30;;;;;;4978431;28;20257;-78
2022/03/25 18:27:54;;;;;;;30.63;17.20;;;5.90;96.30;;;;;;4980492;28;20170;-77
2022/03/25 18:30:21;;;;;;;33.40;19.13;;;5.70;96.30;;;;;;4965234;28;20424;-78
2022/03/25 18:32:47;;;;;;;32.50;18.17;;;5.50;96.30;;;;;;4978715;28;20874;-78
2022/03/25 18:35:14;;;;;;;26.63;17.07;;;5.40;96.30;;;;;;4980090;28;20437;-77
2022/03/25 18:37:39;;;;;;;32.90;19.20;;;5.30;96.30;;;;;;4962079;28;20417;-78
2022/03/25 18:40:07;;;;;;;32.33;18.37;;;5.20;96.30;;;;;;4980407;28;20413;-77
2022/03/25 18:42:52;;;;;;;31.93;19.87;;;5.20;96.30;;;;;;4997371;28;20553;-77
2022/03/25 18:45:17;;;;;;;29.50;19.07;;;5.20;96.30;;;;;;4982089;28;20417;-77
2022/03/25 18:47:43;;;;;;;34.27;20.43;;;5.30;96.30;;;;;;4999005;28;20429;-76
2022/03/25 18:50:09;;;;;;;32.80;19.80;;;5.20;96.30;;;;;;4996660;28;20193;-78
2022/03/25 18:52:35;;;;;;;38.67;24.00;;;5.20;96.30;;;;;;4979896;28;20249;-76
2022/03/25 18:55:01;;;;;;;42.47;28.23;;;5.20;96.30;;;;;;4996029;28;20985;-77
2022/03/25 18:57:27;;;;;;;49.60;28.37;;;5.10;96.30;;;;;;4974872;28;20190;-78
2022/03/25 18:59:53;;;;;;;49.67;28.70;;;5.30;96.30;;;;;;4978709;28;20513;-78
2022/03/25 19:02:23;;;;;;;39.97;27.50;;;5.40;96.30;;;;;;4948288;29;20289;-78
2022/03/25 19:04:51;;;;;;;41.17;23.10;;;5.30;96.30;;;;;;4975407;29;20193;-78
2022/03/25 19:07:17;;;;;;;59.40;28.80;;;5.20;96.30;;;;;;4980318;28;20419;-77
2022/03/25 19:09:44;;;;;;;32.30;22.03;;;5.20;96.30;;;;;;4963077;28;20479;-78
2022/03/25 19:12:15;;;;;;;43.97;26.80;;;5.10;96.30;;;;;;4962591;29;20217;-79
2022/03/25 19:14:42;;;;;;;47.20;20.90;;;5.00;96.30;;;;;;4962600;29;20434;-77
2022/03/25 19:17:09;;;;;;;44.43;23.87;;;4.90;96.30;;;;;;4959258;29;20435;-79
2022/03/25 19:19:35;;;;;;;42.90;23.83;;;4.70;96.30;;;;;;4939808;29;20517;-79
2022/03/25 19:22:01;;;;;;;40.00;23.07;;;4.70;96.30;;;;;;4957463;29;20450;-79
2022/03/25 19:24:27;;;;;;;40.27;23.80;;;4.60;96.30;;;;;;4956987;29;20418;-79
2022/03/25 19:26:52;;;;;;;45.40;24.47;;;4.50;96.30;;;;;;4957364;29;20418;-79
2022/03/25 19:29:18;;;;;;;43.57;27.07;;;4.30;96.30;;;;;;4955906;28;20406;-79
2022/03/25 19:31:47;;;;;;;40.23;24.90;;;4.20;96.30;;;;;;4956778;29;20619;-79
2022/03/25 19:34:13;;;;;;;45.53;25.57;;;4.20;96.30;;;;;;4939465;29;20218;-78
2022/03/25 19:36:39;;;;;;;44.00;25.53;;;4.30;96.30;;;;;;4957008;29;20415;-78
2022/03/25 19:39:05;;;;;;;35.80;23.37;;;4.30;96.30;;;;;;4939420;29;20417;-79
2022/03/25 19:41:31;;;;;;;35.93;23.77;;;4.30;96.30;;;;;;4957909;29;20435;-79
2022/03/25 19:43:58;;;;;;;42.67;24.10;;;4.30;96.30;;;;;;4929038;28;20648;-77
2022/03/25 19:46:24;;;;;;;41.70;23.20;;;4.30;96.30;;;;;;4940565;29;20659;-79
2022/03/25 19:48:50;;;;;;;31.03;21.17;;;4.20;96.30;;;;;;4941044;29;20423;-78
2022/03/25 19:51:16;;;;;;;33.87;22.47;;;3.90;96.30;;;;;;4941083;29;20435;-79
2022/03/25 19:53:42;;;;;;;35.40;23.10;;;3.70;96.30;;;;;;4939861;29;20593;-77
2022/03/25 19:56:08;;;;;;;41.30;23.63;;;3.70;96.30;;;;;;4955956;29;20179;-76
2022/03/25 19:58:34;;;;;;;34.43;23.50;;;3.80;96.30;;;;;;4938700;29;20418;-76
2022/03/25 20:01:00;;;;;;;43.87;21.80;;;3.70;96.30;;;;;;4938271;29;20445;-76
2022/03/25 20:03:26;;;;;;;33.77;21.90;;;3.60;96.30;;;;;;4955463;29;20194;-77
2022/03/25 20:05:53;;;;;;;38.73;23.03;;;3.40;96.30;;;;;;4938413;29;20423;-76
2022/03/25 20:08:19;;;;;;;33.83;22.10;;;3.30;96.30;;;;;;4955419;29;20421;-76
2022/03/25 20:10:44;;;;;;;36.60;23.70;;;3.30;96.30;;;;;;4955543;29;20443;-76
2022/03/25 20:13:11;;;;;;;42.53;25.30;;;3.30;96.30;;;;;;4955467;29;20926;-77
2022/03/25 20:15:39;;;;;;;42.07;25.70;;;3.30;96.30;;;;;;4955446;29;20226;-76
2022/03/25 20:18:05;;;;;;;37.30;23.37;;;3.30;96.30;;;;;;4955155;29;20415;-78
2022/03/25 20:20:31;;;;;;;47.50;28.50;;;3.20;96.30;;;;;;4938030;29;20481;-77
2022/03/25 20:22:57;;;;;;;44.90;27.13;;;3.10;96.30;;;;;;4955344;29;20423;-77
2022/03/25 20:25:22;;;;;;;44.73;27.90;;;2.90;96.30;;;;;;4937967;29;20186;-76
2022/03/25 20:27:48;;;;;;;51.17;29.17;;;2.80;96.30;;;;;;4955076;29;20631;-76
2022/03/25 20:30:14;;;;;;;49.90;28.57;;;2.80;96.30;;;;;;4955513;29;20175;-76
2022/03/25 20:32:40;;;;;;;51.20;30.30;;;2.80;96.30;;;;;;4954897;29;20698;-76
2022/03/25 20:35:07;;;;;;;44.57;25.40;;;2.70;96.30;;;;;;4937937;29;20182;-76
2022/03/25 20:37:34;;;;;;;38.33;23.83;;;2.70;96.30;;;;;;4954945;29;20411;-76
2022/03/25 20:39:59;;;;;;;30.90;20.97;;;2.60;96.30;;;;;;4954788;28;20419;-76
2022/03/25 20:42:25;;;;;;;37.23;21.03;;;2.60;96.30;;;;;;4937671;29;20446;-77
2022/03/25 20:44:50;;;;;;;34.93;22.83;;;2.60;96.30;;;;;;4954923;29;20194;-79
2022/03/25 20:47:16;;;;;;;34.50;20.87;;;2.60;96.30;;;;;;4954893;29;20182;-76
2022/03/25 20:49:42;;;;;;;39.47;21.50;;;2.50;96.30;;;;;;4937462;29;20183;-76
2022/03/25 20:52:11;;;;;;;41.20;21.30;;;2.40;96.30;;;;;;4954671;29;20197;-76
2022/03/25 20:54:38;;;;;;;44.67;24.40;;;2.30;96.30;;;;;;4937489;29;20415;-76
2022/03/25 20:57:05;;;;;;;43.20;23.17;;;2.30;96.30;;;;;;4937413;29;20419;-76
2022/03/25 20:59:30;;;;;;;35.27;22.00;;;2.20;96.30;;;;;;4954493;29;20407;-76
2022/03/25 21:01:56;;;;;;;31.60;20.40;;;2.10;96.30;;;;;;4937285;29;20796;-76
2022/03/25 21:04:21;;;;;;;36.13;20.43;;;2.00;96.30;;;;;;4954528;29;20244;-76
2022/03/25 21:06:47;;;;;;;35.30;21.00;;;2.00;96.30;;;;;;4954553;29;20190;-76
2022/03/25 21:09:14;;;;;;;34.77;21.53;;;1.90;96.30;;;;;;4954273;29;20182;-77
2022/03/25 21:11:41;;;;;;;43.17;19.27;;;2.00;96.30;;;;;;4954397;29;20195;-77
2022/03/25 21:14:06;;;;;;;33.03;19.27;;;2.10;96.30;;;;;;4954356;29;20462;-77
2022/03/25 21:16:32;;;;;;;29.57;18.70;;;2.20;96.30;;;;;;4954386;29;20899;-78
2022/03/25 21:18:58;;;;;;;47.87;20.70;;;2.10;96.30;;;;;;4954118;29;20182;-76
2022/03/25 21:21:24;;;;;;;33.20;21.90;;;2.10;96.30;;;;;;4954272;29;20651;-76
2022/03/25 21:23:50;;;;;;;31.70;20.87;;;2.00;96.30;;;;;;4936951;29;20429;-75
2022/03/25 21:26:16;;;;;;;37.67;21.47;;;2.10;96.30;;;;;;4937149;29;20418;-74
2022/03/25 21:28:41;;;;;;;30.30;20.13;;;2.10;96.30;;;;;;4942495;29;20192;-76
2022/03/25 21:31:08;;;;;;;33.30;19.00;;;2.10;96.30;;;;;;4945239;29;20216;-74